Time;durP1;ratioP1;P1;durP2;ratioP2;P2;SDS_P1;SDS_P2;PMS_P1;PMS_P2;Temp;Humidity;BMP_temperature;BMP_pressure;BME280_temperature;BME280_humidity;BME280_pressure;Samples;Min_cycle;Max_cycle;Signal;HPM_P1;HPM_P2
2023/11/15 00:01:18;;;;;;;4.40;0.85;;;9.30;83.50;;;;;;4994007;28;20387;-73
2023/11/15 00:03:43;;;;;;;2.08;0.43;;;9.30;84.10;;;;;;4993857;28;20475;-73
2023/11/15 00:06:09;;;;;;;3.63;0.70;;;9.30;84.20;;;;;;4993429;28;20061;-73
2023/11/15 00:08:34;;;;;;;1.65;0.50;;;9.30;84.30;;;;;;4993562;28;20070;-74
2023/11/15 00:11:00;;;;;;;2.03;0.50;;;9.30;84.40;;;;;;4993699;28;20023;-74
2023/11/15 00:13:25;;;;;;;1.08;0.32;;;9.20;84.80;;;;;;4993667;28;20022;-74
2023/11/15 00:15:51;;;;;;;1.95;0.30;;;9.10;85.10;;;;;;4993428;28;20466;-73
2023/11/15 00:18:17;;;;;;;5.07;0.82;;;9.10;85.40;;;;;;4993000;28;20026;-73
2023/11/15 00:20:43;;;;;;;5.90;1.23;;;9.00;86.30;;;;;;4994315;28;20073;-75
2023/11/15 00:23:09;;;;;;;2.08;0.40;;;9.00;86.90;;;;;;4994428;28;20026;-74
2023/11/15 00:25:35;;;;;;;2.78;1.00;;;8.90;87.50;;;;;;4993192;28;20022;-74
2023/11/15 00:28:01;;;;;;;29.20;21.35;;;8.90;87.80;;;;;;4993225;28;20030;-73
2023/11/15 00:30:27;;;;;;;0.98;0.68;;;9.00;88.00;;;;;;4993008;28;20403;-74
2023/11/15 00:32:52;;;;;;;2.50;0.65;;;9.00;88.00;;;;;;4992933;28;20014;-74
2023/11/15 00:35:18;;;;;;;3.42;0.63;;;9.00;88.40;;;;;;4993308;28;20050;-74
2023/11/15 00:37:45;;;;;;;2.22;0.57;;;9.00;89.10;;;;;;4993289;28;20019;-74
2023/11/15 00:40:13;;;;;;;3.05;0.73;;;8.90;89.70;;;;;;4993283;28;20169;-74
2023/11/15 00:42:39;;;;;;;2.03;0.55;;;8.90;90.30;;;;;;4993237;28;20022;-75
2023/11/15 00:45:08;;;;;;;18.88;12.02;;;8.90;90.50;;;;;;4993496;28;20037;-74
2023/11/15 00:47:34;;;;;;;2.22;1.30;;;8.90;90.70;;;;;;4992952;28;20031;-75
2023/11/15 00:50:01;;;;;;;6.68;0.85;;;8.90;90.90;;;;;;4992834;28;20059;-75
2023/11/15 00:52:26;;;;;;;2.58;1.33;;;8.90;91.00;;;;;;4993058;28;20442;-74
2023/11/15 00:54:52;;;;;;;8.45;3.38;;;8.80;90.40;;;;;;4992969;28;20027;-74
2023/11/15 00:57:18;;;;;;;1.17;0.30;;;8.80;90.00;;;;;;4994336;28;20057;-74
2023/11/15 00:59:53;;;;;;;1.38;0.28;;;8.70;88.40;;;;;;4992951;28;20034;-73
2023/11/15 01:02:19;;;;;;;1.77;0.40;;;8.60;86.30;;;;;;4992993;28;20029;-73
2023/11/15 01:04:46;;;;;;;0.25;0.20;;;8.50;86.10;;;;;;4992913;28;20034;-73
2023/11/15 01:07:12;;;;;;;0.47;0.10;;;8.40;86.20;;;;;;4992754;28;20076;-72
2023/11/15 01:09:38;;;;;;;0.20;0.10;;;8.30;86.60;;;;;;4992766;28;20038;-73
2023/11/15 01:12:05;;;;;;;6.85;3.63;;;8.20;87.40;;;;;;4992386;28;20088;-73
2023/11/15 01:14:30;;;;;;;22.75;14.57;;;8.20;87.30;;;;;;4993210;28;20022;-73
2023/11/15 01:16:56;;;;;;;1.23;0.30;;;8.20;87.60;;;;;;4992586;28;20053;-73
2023/11/15 01:19:21;;;;;;;2.17;0.20;;;8.20;87.40;;;;;;4992528;28;20030;-73
2023/11/15 01:21:50;;;;;;;1.65;0.30;;;8.30;87.20;;;;;;4993893;28;20105;-73
2023/11/15 01:24:16;;;;;;;0.82;0.20;;;8.30;87.40;;;;;;4992695;28;20379;-73
2023/11/15 01:26:42;;;;;;;1.25;0.30;;;8.30;86.90;;;;;;4993524;28;20069;-73
2023/11/15 01:29:08;;;;;;;1.63;0.30;;;8.30;87.10;;;;;;4992572;28;20391;-73
2023/11/15 01:31:33;;;;;;;1.73;0.60;;;8.40;87.20;;;;;;4995697;28;20542;-73
2023/11/15 01:33:59;;;;;;;2.33;0.55;;;8.50;87.20;;;;;;4996665;28;20026;-74
2023/11/15 01:36:25;;;;;;;4.85;0.52;;;8.40;87.00;;;;;;4996599;28;20477;-73
2023/11/15 01:38:50;;;;;;;1.45;0.50;;;8.50;86.70;;;;;;4996077;28;20044;-73
2023/11/15 01:41:17;;;;;;;1.45;0.60;;;8.50;86.40;;;;;;4996449;28;20053;-74
2023/11/15 01:43:44;;;;;;;2.53;0.50;;;8.50;86.90;;;;;;4996298;28;20030;-74
2023/11/15 01:46:11;;;;;;;2.47;0.75;;;8.60;86.80;;;;;;4996280;28;20026;-74
2023/11/15 01:48:36;;;;;;;1.95;0.60;;;8.50;87.00;;;;;;4997398;28;20026;-73
2023/11/15 01:51:03;;;;;;;3.60;0.60;;;8.60;87.10;;;;;;4997328;28;20051;-73
2023/11/15 01:53:30;;;;;;;6.28;2.20;;;8.60;86.50;;;;;;4996340;28;20418;-75
2023/11/15 01:55:56;;;;;;;18.02;11.90;;;8.60;86.60;;;;;;4996439;28;20026;-75
2023/11/15 01:58:25;;;;;;;3.63;1.20;;;8.60;86.50;;;;;;4997132;28;20046;-73
2023/11/15 02:00:51;;;;;;;7.03;1.08;;;8.60;86.10;;;;;;4996264;28;20019;-75
2023/11/15 02:03:18;;;;;;;3.47;0.80;;;8.70;85.70;;;;;;4996239;28;20037;-74
2023/11/15 02:05:45;;;;;;;2.70;0.60;;;8.70;85.50;;;;;;4996153;28;20026;-73
2023/11/15 02:08:11;;;;;;;2.45;0.60;;;8.70;85.90;;;;;;4996031;28;20034;-74
2023/11/15 02:10:37;;;;;;;5.13;0.77;;;8.70;85.10;;;;;;4996959;28;20402;-73
2023/11/15 02:13:02;;;;;;;2.30;0.85;;;8.70;84.20;;;;;;4997453;28;20489;-74
2023/11/15 02:15:28;;;;;;;7.30;1.23;;;8.70;84.00;;;;;;4995893;28;20045;-73
2023/11/15 02:17:54;;;;;;;4.78;1.17;;;8.80;83.70;;;;;;4995800;28;20022;-74
2023/11/15 02:20:22;;;;;;;3.83;0.57;;;8.90;83.90;;;;;;4995895;28;20076;-74
2023/11/15 02:22:49;;;;;;;3.75;0.60;;;8.80;83.10;;;;;;4996855;28;20018;-75
2023/11/15 02:25:16;;;;;;;4.25;0.73;;;8.90;83.50;;;;;;4996525;28;20353;-74
2023/11/15 02:27:42;;;;;;;2.47;0.70;;;8.80;83.80;;;;;;4995255;28;20030;-74
2023/11/15 02:30:09;;;;;;;2.75;0.70;;;8.90;83.90;;;;;;4996514;28;20038;-74
2023/11/15 02:32:39;;;;;;;3.80;0.85;;;8.90;83.70;;;;;;4996722;28;20439;-74
2023/11/15 02:35:08;;;;;;;3.20;1.02;;;8.90;83.60;;;;;;4996546;28;20033;-75
2023/11/15 02:37:35;;;;;;;4.43;0.80;;;8.80;83.70;;;;;;4995590;28;20027;-73
2023/11/15 02:40:04;;;;;;;2.90;0.70;;;8.80;84.20;;;;;;5003842;28;20022;-74
2023/11/15 02:42:32;;;;;;;7.32;2.08;;;8.80;83.10;;;;;;4995028;28;20030;-74
2023/11/15 02:44:58;;;;;;;1.67;0.75;;;8.80;83.60;;;;;;4995839;28;20026;-74
2023/11/15 02:47:25;;;;;;;4.22;0.75;;;8.80;84.00;;;;;;4995412;28;20022;-75
2023/11/15 02:49:54;;;;;;;5.45;1.05;;;8.80;83.80;;;;;;4995061;28;20069;-76
2023/11/15 02:52:20;;;;;;;1.90;0.60;;;8.80;84.60;;;;;;4994974;28;20033;-75
2023/11/15 02:54:47;;;;;;;3.55;0.70;;;8.70;84.20;;;;;;4996223;28;20030;-76
2023/11/15 02:57:13;;;;;;;2.03;0.75;;;8.80;84.20;;;;;;4996440;28;20387;-77
2023/11/15 02:59:39;;;;;;;6.38;0.88;;;8.70;84.90;;;;;;4995294;28;20391;-74
2023/11/15 03:02:04;;;;;;;3.38;0.88;;;8.70;85.00;;;;;;4994502;28;20022;-73
2023/11/15 03:04:30;;;;;;;3.13;0.60;;;8.70;85.30;;;;;;4978401;28;20035;-74
2023/11/15 03:06:56;;;;;;;5.13;0.80;;;8.80;85.60;;;;;;4994761;28;20022;-73
2023/11/15 03:09:22;;;;;;;3.80;0.77;;;8.80;85.30;;;;;;4994541;28;20129;-73
2023/11/15 03:11:48;;;;;;;3.58;0.98;;;8.80;85.40;;;;;;4994882;28;20390;-75
2023/11/15 03:14:13;;;;;;;2.03;0.68;;;8.80;85.50;;;;;;4994320;28;20030;-74
2023/11/15 03:16:40;;;;;;;2.20;0.70;;;8.80;85.40;;;;;;4995728;28;20105;-75
2023/11/15 03:19:06;;;;;;;3.10;0.75;;;8.90;85.60;;;;;;4995797;28;20058;-75
2023/11/15 03:21:32;;;;;;;3.50;0.82;;;8.90;85.60;;;;;;4995492;28;20089;-74
2023/11/15 03:23:57;;;;;;;3.13;0.90;;;8.90;84.80;;;;;;4994384;28;20038;-74
2023/11/15 03:26:23;;;;;;;4.25;0.75;;;9.00;84.00;;;;;;4994325;28;20574;-74
2023/11/15 03:28:49;;;;;;;6.05;0.82;;;9.00;83.90;;;;;;4992624;28;20034;-75
2023/11/15 03:31:15;;;;;;;4.75;1.00;;;8.90;82.30;;;;;;4995520;28;20117;-75
2023/11/15 03:33:43;;;;;;;3.42;0.93;;;8.90;82.20;;;;;;4994118;28;20018;-74
2023/11/15 03:36:09;;;;;;;6.55;0.88;;;9.00;82.40;;;;;;4994082;28;20557;-74
2023/11/15 03:38:35;;;;;;;3.80;0.70;;;9.00;82.00;;;;;;4995556;28;20050;-74
2023/11/15 03:41:01;;;;;;;3.60;0.60;;;8.80;82.10;;;;;;4995328;28;20509;-74
2023/11/15 03:43:27;;;;;;;4.53;0.80;;;8.80;82.20;;;;;;4994407;28;20027;-76
2023/11/15 03:45:54;;;;;;;3.83;0.70;;;8.90;82.40;;;;;;4994266;28;20099;-73
2023/11/15 03:48:20;;;;;;;3.35;0.77;;;8.90;81.80;;;;;;4994214;28;20375;-73
2023/11/15 03:50:46;;;;;;;3.70;0.90;;;8.90;81.60;;;;;;4993554;28;20050;-73
2023/11/15 03:53:11;;;;;;;4.30;0.95;;;8.90;81.00;;;;;;4994135;28;20041;-75
2023/11/15 03:55:37;;;;;;;3.17;0.85;;;8.90;80.70;;;;;;4995390;28;20037;-75
2023/11/15 03:58:02;;;;;;;2.75;0.70;;;8.80;81.10;;;;;;4994162;28;20113;-74
2023/11/15 04:00:28;;;;;;;2.38;0.50;;;8.80;80.40;;;;;;4993905;28;20467;-75
2023/11/15 04:02:54;;;;;;;4.93;0.65;;;8.80;80.50;;;;;;4994719;28;20447;-74
2023/11/15 04:05:19;;;;;;;3.55;0.40;;;8.80;80.90;;;;;;4995030;28;20403;-75
2023/11/15 04:07:45;;;;;;;2.28;0.68;;;8.80;81.00;;;;;;4993746;28;20018;-75
2023/11/15 04:10:12;;;;;;;4.47;0.65;;;8.70;81.40;;;;;;4993506;28;20364;-76
2023/11/15 04:12:38;;;;;;;3.55;0.63;;;8.70;82.10;;;;;;4993596;28;20117;-75
2023/11/15 04:15:04;;;;;;;2.35;0.65;;;8.70;81.90;;;;;;4994649;28;20065;-75
2023/11/15 04:17:30;;;;;;;6.07;0.82;;;8.70;81.80;;;;;;4993490;28;20045;-76
2023/11/15 04:19:56;;;;;;;4.20;0.63;;;8.70;82.30;;;;;;4993528;28;20022;-76
2023/11/15 04:22:21;;;;;;;2.42;0.60;;;8.70;81.80;;;;;;4993577;28;20030;-75
2023/11/15 04:24:47;;;;;;;4.28;0.52;;;8.70;81.50;;;;;;4993365;28;20026;-75
2023/11/15 04:27:13;;;;;;;3.78;0.55;;;8.70;81.80;;;;;;4993394;28;20530;-76
2023/11/15 04:29:42;;;;;;;3.60;0.65;;;8.70;81.90;;;;;;4994393;28;20479;-75
2023/11/15 04:32:08;;;;;;;2.72;0.50;;;8.70;81.90;;;;;;4993080;28;20118;-75
2023/11/15 04:34:33;;;;;;;2.90;0.80;;;8.70;81.70;;;;;;4993364;28;20383;-74
2023/11/15 04:36:59;;;;;;;1.67;0.40;;;8.70;82.00;;;;;;4993027;28;20097;-74
2023/11/15 04:39:25;;;;;;;2.63;0.55;;;8.70;81.80;;;;;;4993203;28;20058;-76
2023/11/15 04:41:51;;;;;;;2.60;0.70;;;8.70;82.10;;;;;;4992635;28;20085;-76
2023/11/15 04:44:19;;;;;;;3.90;0.77;;;8.70;82.10;;;;;;4993873;28;20479;-76
2023/11/15 04:46:46;;;;;;;2.17;0.38;;;8.60;82.20;;;;;;4993006;28;20448;-76
2023/11/15 04:49:11;;;;;;;2.50;0.55;;;8.70;82.20;;;;;;4992955;28;20464;-76
2023/11/15 04:51:38;;;;;;;5.07;0.73;;;8.70;82.00;;;;;;4992373;28;20054;-76
2023/11/15 04:54:05;;;;;;;3.10;0.80;;;8.70;82.10;;;;;;4992922;28;20451;-76
2023/11/15 04:56:32;;;;;;;5.55;1.13;;;8.70;82.00;;;;;;4992873;28;20026;-76
2023/11/15 04:58:59;;;;;;;2.83;0.82;;;8.70;81.90;;;;;;4992899;28;20438;-76
2023/11/15 05:01:25;;;;;;;2.50;0.70;;;8.70;83.20;;;;;;4992821;28;20054;-77
2023/11/15 05:03:50;;;;;;;3.92;1.00;;;8.70;83.40;;;;;;4992659;28;20031;-76
2023/11/15 05:06:16;;;;;;;4.57;0.80;;;8.60;84.00;;;;;;4993047;28;20057;-75
2023/11/15 05:08:41;;;;;;;3.67;0.95;;;8.60;84.10;;;;;;4992592;28;20026;-75
2023/11/15 05:11:07;;;;;;;6.20;1.10;;;8.50;84.90;;;;;;4992703;28;20033;-75
2023/11/15 05:13:33;;;;;;;6.53;1.23;;;8.50;84.90;;;;;;4992322;28;20160;-75
2023/11/15 05:15:58;;;;;;;2.63;0.70;;;8.50;85.60;;;;;;4992589;28;20034;-75
2023/11/15 05:18:24;;;;;;;4.10;0.90;;;8.50;85.80;;;;;;4992674;28;20029;-74
2023/11/15 05:20:51;;;;;;;5.32;0.82;;;8.50;85.70;;;;;;4992533;28;20497;-74
2023/11/15 05:23:17;;;;;;;4.40;0.85;;;8.50;85.70;;;;;;4992574;28;20022;-74
2023/11/15 05:25:43;;;;;;;3.60;1.13;;;8.50;85.70;;;;;;4992492;28;20081;-74
2023/11/15 05:28:10;;;;;;;7.90;1.65;;;8.50;86.10;;;;;;4992318;28;20030;-74
2023/11/15 05:30:35;;;;;;;5.53;1.17;;;8.50;85.90;;;;;;4992397;28;20046;-74
2023/11/15 05:33:01;;;;;;;5.22;1.42;;;8.50;85.50;;;;;;4992476;28;20031;-75
2023/11/15 05:35:27;;;;;;;4.25;1.00;;;8.50;85.10;;;;;;4992513;28;20026;-75
2023/11/15 05:37:52;;;;;;;6.85;1.15;;;8.50;83.40;;;;;;4992587;28;20018;-74
2023/11/15 05:40:19;;;;;;;14.85;2.42;;;8.50;84.10;;;;;;4992548;28;20382;-78
2023/11/15 05:42:45;;;;;;;5.22;1.30;;;8.60;88.00;;;;;;4976034;28;20023;-78
2023/11/15 05:45:11;;;;;;;6.35;1.10;;;8.90;85.70;;;;;;4992488;28;20408;-78
2023/11/15 05:47:40;;;;;;;3.42;0.95;;;9.20;83.10;;;;;;4992416;28;20027;-78
2023/11/15 05:50:09;;;;;;;5.32;1.10;;;9.30;82.00;;;;;;4991904;28;20058;-77
2023/11/15 05:52:37;;;;;;;4.47;1.02;;;9.60;80.60;;;;;;4992588;28;20053;-78
2023/11/15 05:55:07;;;;;;;5.20;1.35;;;9.80;80.50;;;;;;4992281;28;20034;-78
2023/11/15 05:57:33;;;;;;;5.18;1.25;;;9.90;80.20;;;;;;4992458;28;20026;-78
2023/11/15 05:59:59;;;;;;;7.68;1.20;;;10.00;77.30;;;;;;4992467;28;20387;-74
2023/11/15 06:02:25;;;;;;;5.28;1.17;;;10.00;76.90;;;;;;4993315;28;20014;-76
2023/11/15 06:04:54;;;;;;;6.30;1.17;;;10.00;77.20;;;;;;4992548;28;20037;-75
2023/11/15 06:07:20;;;;;;;5.45;1.08;;;9.80;76.70;;;;;;4992228;28;20106;-75
2023/11/15 06:09:46;;;;;;;7.03;1.60;;;9.60;78.20;;;;;;4991984;28;20130;-73
2023/11/15 06:12:12;;;;;;;17.38;3.10;;;9.60;79.40;;;;;;4992190;28;20231;-74
2023/11/15 06:14:37;;;;;;;7.18;2.50;;;9.70;83.20;;;;;;4992055;28;20025;-75
2023/11/15 06:17:03;;;;;;;8.48;2.17;;;9.80;84.20;;;;;;4996117;28;20037;-75
2023/11/15 06:19:31;;;;;;;4.10;1.55;;;10.00;81.10;;;;;;4996639;28;20080;-74
2023/11/15 06:21:57;;;;;;;4.53;1.67;;;10.00;80.70;;;;;;4995696;28;20130;-74
2023/11/15 06:24:22;;;;;;;4.20;1.20;;;10.30;78.80;;;;;;4995503;28;20046;-76
2023/11/15 06:26:51;;;;;;;5.43;1.05;;;10.40;77.40;;;;;;4996606;28;20034;-75
2023/11/15 06:29:18;;;;;;;6.88;1.40;;;10.30;76.10;;;;;;4995408;28;20038;-77
2023/11/15 06:31:44;;;;;;;5.47;0.88;;;10.50;75.80;;;;;;4995399;28;20029;-73
2023/11/15 06:34:10;;;;;;;5.25;0.93;;;10.30;74.00;;;;;;4995573;28;20026;-75
2023/11/15 06:36:36;;;;;;;5.00;1.30;;;10.30;74.70;;;;;;4995629;28;20030;-75
2023/11/15 06:39:08;;;;;;;5.88;1.50;;;10.30;74.80;;;;;;4997402;28;20297;-75
2023/11/15 06:41:34;;;;;;;2.28;0.90;;;10.00;75.10;;;;;;4996860;28;20057;-75
2023/11/15 06:44:00;;;;;;;4.57;1.40;;;9.80;76.30;;;;;;4995036;28;20479;-74
2023/11/15 06:46:26;;;;;;;3.55;0.80;;;9.60;77.80;;;;;;4995352;28;20076;-75
2023/11/15 06:48:51;;;;;;;4.80;1.17;;;9.50;77.40;;;;;;4995328;28;20077;-75
2023/11/15 06:51:17;;;;;;;3.78;1.02;;;9.30;77.90;;;;;;4995010;28;20053;-75
2023/11/15 06:53:45;;;;;;;6.32;1.20;;;9.20;78.40;;;;;;4995257;28;20025;-76
2023/11/15 06:56:11;;;;;;;5.03;1.80;;;9.20;79.10;;;;;;4995295;28;20033;-74
2023/11/15 06:58:37;;;;;;;7.43;1.40;;;9.20;79.60;;;;;;4994930;28;20027;-73
2023/11/15 07:01:05;;;;;;;6.85;1.33;;;9.10;78.70;;;;;;4994651;28;20032;-74
2023/11/15 07:03:31;;;;;;;9.43;2.80;;;9.10;79.00;;;;;;4994703;28;20113;-74
2023/11/15 07:05:56;;;;;;;23.42;11.77;;;9.00;79.50;;;;;;4994747;28;20109;-74
2023/11/15 07:08:22;;;;;;;12.40;5.75;;;9.00;80.50;;;;;;5011277;28;20026;-74
2023/11/15 07:10:48;;;;;;;15.63;8.00;;;9.00;80.10;;;;;;4994447;28;20505;-75
2023/11/15 07:13:13;;;;;;;15.95;7.55;;;9.00;80.70;;;;;;4994616;28;20571;-74
2023/11/15 07:15:40;;;;;;;17.13;6.97;;;9.10;81.40;;;;;;4994593;28;20031;-74
2023/11/15 07:18:06;;;;;;;21.15;7.30;;;9.00;82.30;;;;;;4994514;28;20027;-74
2023/11/15 07:20:34;;;;;;;8.07;4.03;;;9.00;82.60;;;;;;4994475;28;20030;-74
2023/11/15 07:23:02;;;;;;;7.75;2.65;;;9.00;82.30;;;;;;4994609;28;20125;-74
2023/11/15 07:25:29;;;;;;;7.18;2.75;;;9.00;82.10;;;;;;4994798;28;20367;-74
2023/11/15 07:27:56;;;;;;;6.35;2.15;;;9.00;82.20;;;;;;4993359;28;20030;-74
2023/11/15 07:30:22;;;;;;;5.47;1.80;;;8.90;82.40;;;;;;4995031;28;20037;-74
2023/11/15 07:32:49;;;;;;;7.47;1.50;;;8.90;83.20;;;;;;4994490;28;20026;-73
2023/11/15 07:35:14;;;;;;;7.85;1.73;;;8.80;82.10;;;;;;4994738;28;20045;-73
2023/11/15 07:37:40;;;;;;;3.75;1.55;;;8.70;82.60;;;;;;4994318;28;20022;-73
2023/11/15 07:40:12;;;;;;;4.03;1.63;;;8.60;82.60;;;;;;4994289;28;20120;-73
2023/11/15 07:42:39;;;;;;;5.57;1.25;;;8.60;83.10;;;;;;4996134;28;20023;-74
2023/11/15 07:45:08;;;;;;;9.65;1.63;;;8.60;83.20;;;;;;4994344;28;20036;-75
2023/11/15 07:47:34;;;;;;;4.25;1.27;;;8.60;83.00;;;;;;4994333;28;20121;-76
2023/11/15 07:50:02;;;;;;;7.20;1.50;;;8.70;82.80;;;;;;4993875;28;20109;-75
2023/11/15 07:52:30;;;;;;;9.27;1.30;;;8.70;82.00;;;;;;4994031;28;20487;-76
2023/11/15 07:54:56;;;;;;;2.33;1.10;;;8.70;82.20;;;;;;4993952;28;20030;-74
2023/11/15 07:57:22;;;;;;;5.80;1.45;;;8.70;81.80;;;;;;4994171;28;20032;-74
2023/11/15 07:59:47;;;;;;;3.10;1.08;;;8.80;80.80;;;;;;4994164;28;20497;-75
2023/11/15 08:02:13;;;;;;;9.68;1.60;;;8.80;80.60;;;;;;4993779;28;20058;-75
2023/11/15 08:04:39;;;;;;;5.82;1.52;;;8.80;80.90;;;;;;4993876;28;20026;-76
2023/11/15 08:07:04;;;;;;;4.82;1.33;;;8.90;80.50;;;;;;4993815;28;20035;-75
2023/11/15 08:09:32;;;;;;;4.20;1.70;;;8.90;80.60;;;;;;4993663;28;20498;-76
2023/11/15 08:11:59;;;;;;;6.22;1.33;;;9.00;80.00;;;;;;4993796;28;20034;-76
2023/11/15 08:14:25;;;;;;;8.48;1.13;;;9.00;79.90;;;;;;4993741;28;20471;-73
2023/11/15 08:16:51;;;;;;;8.25;1.20;;;9.00;79.40;;;;;;4993629;28;20041;-73
2023/11/15 08:19:20;;;;;;;6.30;1.60;;;9.10;78.90;;;;;;4993765;28;20026;-73
2023/11/15 08:21:50;;;;;;;2.78;0.70;;;9.10;78.10;;;;;;4977624;28;20168;-74
2023/11/15 08:24:22;;;;;;;4.28;1.00;;;9.20;78.70;;;;;;4993478;28;20383;-74
2023/11/15 08:26:50;;;;;;;3.72;0.98;;;9.20;78.10;;;;;;4993575;28;20037;-74
2023/11/15 08:29:15;;;;;;;2.97;0.80;;;9.50;78.60;;;;;;4993415;28;20030;-74
2023/11/15 08:31:43;;;;;;;2.90;0.82;;;9.60;76.60;;;;;;4994307;28;20033;-73
2023/11/15 08:34:08;;;;;;;3.80;1.08;;;9.50;77.40;;;;;;4993132;28;20114;-75
2023/11/15 08:36:34;;;;;;;5.55;0.88;;;9.70;76.70;;;;;;4992887;28;20050;-74
2023/11/15 08:39:00;;;;;;;3.92;1.20;;;9.90;75.50;;;;;;4992828;28;20488;-74
2023/11/15 08:41:26;;;;;;;3.38;0.82;;;10.20;75.30;;;;;;4993320;28;20375;-74
2023/11/15 08:43:52;;;;;;;3.20;0.80;;;10.20;74.10;;;;;;4993318;28;20066;-75
2023/11/15 08:46:18;;;;;;;2.53;0.68;;;10.10;74.60;;;;;;4992894;28;20022;-75
2023/11/15 08:48:44;;;;;;;3.35;1.08;;;10.20;73.40;;;;;;4994080;28;20022;-76
2023/11/15 08:51:10;;;;;;;4.53;1.15;;;10.40;73.40;;;;;;4994206;28;20130;-76
2023/11/15 08:53:37;;;;;;;3.72;1.10;;;10.60;72.30;;;;;;4993365;28;20026;-74
2023/11/15 08:56:07;;;;;;;4.05;1.13;;;10.70;71.30;;;;;;4992847;28;20464;-74
2023/11/15 08:58:34;;;;;;;4.60;0.93;;;10.70;71.00;;;;;;4992832;28;20490;-72
2023/11/15 09:01:02;;;;;;;6.32;1.13;;;10.50;71.60;;;;;;4992812;28;20037;-74
2023/11/15 09:03:28;;;;;;;2.95;0.80;;;10.20;71.80;;;;;;4994385;28;20030;-77
2023/11/15 09:05:55;;;;;;;5.72;1.20;;;10.20;72.80;;;;;;4994392;28;20026;-76
2023/11/15 09:08:21;;;;;;;3.78;1.02;;;10.20;72.30;;;;;;4992948;28;20054;-76
2023/11/15 09:10:50;;;;;;;4.40;1.17;;;10.20;72.80;;;;;;4992667;28;20042;-77
2023/11/15 09:13:18;;;;;;;4.65;1.05;;;10.10;72.10;;;;;;4993983;28;20022;-77
2023/11/15 09:15:46;;;;;;;2.58;0.90;;;10.20;72.00;;;;;;4992689;28;20033;-74
2023/11/15 09:18:14;;;;;;;3.58;0.77;;;10.30;70.90;;;;;;4992601;28;20026;-74
2023/11/15 09:20:41;;;;;;;4.75;1.40;;;10.40;72.30;;;;;;4992406;28;20125;-74
2023/11/15 09:23:08;;;;;;;2.92;1.08;;;10.60;71.30;;;;;;4992526;28;20019;-74
2023/11/15 09:25:35;;;;;;;2.58;0.73;;;10.80;71.60;;;;;;4992632;28;20022;-74
2023/11/15 09:28:04;;;;;;;3.20;0.70;;;10.80;70.90;;;;;;4992506;28;20478;-74
2023/11/15 09:30:34;;;;;;;4.78;0.60;;;11.20;70.40;;;;;;4992266;28;20049;-74
2023/11/15 09:33:03;;;;;;;5.63;1.33;;;11.30;69.10;;;;;;4992552;28;20029;-74
2023/11/15 09:35:29;;;;;;;3.80;0.80;;;11.40;69.50;;;;;;4992226;28;20033;-74
2023/11/15 09:37:59;;;;;;;1.77;0.80;;;11.70;68.80;;;;;;4992247;28;20045;-74
2023/11/15 09:40:26;;;;;;;6.43;1.45;;;11.80;69.00;;;;;;4992681;28;20026;-74
2023/11/15 09:42:53;;;;;;;9.65;5.15;;;11.60;67.60;;;;;;4992604;28;20117;-73
2023/11/15 09:45:20;;;;;;;3.42;1.38;;;11.80;67.10;;;;;;4993431;28;20368;-77
2023/11/15 09:47:48;;;;;;;2.25;0.90;;;12.00;65.10;;;;;;4992656;28;20022;-75
2023/11/15 09:50:22;;;;;;;3.47;1.13;;;11.70;67.10;;;;;;4992251;28;20073;-74
2023/11/15 09:52:53;;;;;;;3.85;0.95;;;11.90;66.40;;;;;;4995850;28;20027;-75
2023/11/15 09:55:28;;;;;;;3.95;1.02;;;12.20;65.50;;;;;;4996189;28;20048;-74
2023/11/15 09:57:53;;;;;;;3.83;1.07;;;12.50;64.80;;;;;;4996086;28;20033;-76
2023/11/15 10:00:20;;;;;;;4.70;1.10;;;12.70;64.80;;;;;;4995894;28;20269;-74
2023/11/15 10:02:47;;;;;;;3.17;1.50;;;12.90;65.50;;;;;;4996027;28;20049;-74
2023/11/15 10:05:26;;;;;;;3.97;2.10;;;13.00;64.00;;;;;;4995673;28;20140;-74
2023/11/15 10:08:11;;;;;;;4.82;1.15;;;12.60;62.10;;;;;;4997011;28;20053;-74
2023/11/15 10:10:37;;;;;;;3.67;0.93;;;12.00;62.70;;;;;;4995682;28;20035;-74
2023/11/15 10:13:12;;;;;;;5.07;0.90;;;11.90;63.40;;;;;;4996284;28;20042;-73
2023/11/15 10:15:39;;;;;;;3.60;0.93;;;11.60;65.70;;;;;;4995680;28;20113;-74
2023/11/15 10:18:11;;;;;;;3.20;0.80;;;11.30;65.00;;;;;;4995892;28;20030;-73
2023/11/15 10:20:37;;;;;;;7.03;5.20;;;11.20;65.40;;;;;;4995666;28;20023;-75
2023/11/15 10:23:03;;;;;;;2.38;1.02;;;11.30;66.00;;;;;;4995179;28;20026;-75
2023/11/15 10:25:31;;;;;;;4.85;0.68;;;11.40;63.80;;;;;;4995580;28;20036;-74
2023/11/15 10:28:10;;;;;;;4.28;0.93;;;11.70;64.00;;;;;;4995396;28;20026;-75
2023/11/15 10:30:36;;;;;;;2.53;0.80;;;11.80;63.80;;;;;;4995479;28;20092;-74
2023/11/15 10:33:10;;;;;;;2.40;0.88;;;12.10;62.00;;;;;;4995188;28;20471;-74
2023/11/15 10:35:38;;;;;;;3.42;0.90;;;12.20;61.30;;;;;;4995447;28;20598;-74
2023/11/15 10:38:14;;;;;;;2.63;0.80;;;12.20;61.80;;;;;;4996587;28;20506;-75
2023/11/15 10:40:49;;;;;;;2.15;0.43;;;12.20;61.00;;;;;;4996379;28;20018;-74
2023/11/15 10:43:19;;;;;;;2.27;0.60;;;12.10;60.80;;;;;;4995347;28;20463;-76
2023/11/15 10:45:46;;;;;;;1.45;0.60;;;12.20;61.10;;;;;;4995397;28;20029;-75
2023/11/15 10:48:13;;;;;;;2.42;0.95;;;12.60;59.90;;;;;;4995198;28;20030;-76
2023/11/15 10:50:44;;;;;;;4.05;0.77;;;12.80;60.40;;;;;;4983277;28;20054;-75
2023/11/15 10:53:10;;;;;;;1.80;0.60;;;12.90;59.50;;;;;;4995032;28;20026;-76
2023/11/15 10:55:38;;;;;;;2.85;0.95;;;12.90;59.90;;;;;;4994952;28;20034;-76
2023/11/15 10:58:05;;;;;;;3.20;0.80;;;12.90;59.80;;;;;;4978630;28;20515;-75
2023/11/15 11:00:34;;;;;;;3.17;0.60;;;13.00;59.70;;;;;;4994879;28;20042;-76
2023/11/15 11:03:01;;;;;;;2.22;0.90;;;13.20;59.20;;;;;;4994436;28;20034;-77
2023/11/15 11:05:34;;;;;;;1.80;0.57;;;13.00;59.00;;;;;;4994499;28;20030;-76
2023/11/15 11:08:24;;;;;;;2.58;1.10;;;13.00;58.90;;;;;;4994462;28;20109;-75
2023/11/15 11:11:05;;;;;;;2.50;0.75;;;12.90;59.80;;;;;;4994538;28;20403;-76
2023/11/15 11:13:33;;;;;;;2.92;0.60;;;13.60;57.20;;;;;;4994682;28;20049;-78
2023/11/15 11:16:34;;;;;;;2.53;0.80;;;13.90;55.80;;;;;;4994681;28;20018;-77
2023/11/15 11:19:16;;;;;;;2.13;0.70;;;13.70;55.10;;;;;;4990228;28;20073;-77
2023/11/15 11:22:07;;;;;;;4.00;1.10;;;13.60;55.50;;;;;;4994376;28;20497;-77
2023/11/15 11:24:36;;;;;;;6.45;1.23;;;14.00;55.10;;;;;;4994911;28;20052;-77
2023/11/15 11:27:16;;;;;;;2.50;0.93;;;13.90;55.40;;;;;;4994347;28;20472;-77
2023/11/15 11:29:51;;;;;;;2.78;0.88;;;14.30;53.30;;;;;;4993813;28;20038;-77
2023/11/15 11:32:26;;;;;;;3.70;1.30;;;14.30;54.00;;;;;;4994512;28;20061;-77
2023/11/15 11:35:04;;;;;;;4.70;1.08;;;13.90;53.60;;;;;;4996455;28;20026;-76
2023/11/15 11:37:52;;;;;;;2.90;1.15;;;13.90;54.90;;;;;;4994550;28;20026;-76
2023/11/15 11:40:23;;;;;;;4.57;1.35;;;14.00;54.30;;;;;;4994401;28;20121;-76
2023/11/15 11:42:52;;;;;;;3.83;1.17;;;13.70;53.90;;;;;;4994343;28;20073;-76
2023/11/15 11:45:26;;;;;;;5.22;1.20;;;13.50;54.90;;;;;;4993866;28;20080;-77
2023/11/15 11:47:51;;;;;;;3.72;1.20;;;13.60;54.40;;;;;;4993691;28;20081;-76
2023/11/15 11:50:24;;;;;;;3.15;0.82;;;13.10;55.40;;;;;;4993411;28;20054;-76
2023/11/15 11:52:57;;;;;;;3.70;0.90;;;13.50;54.40;;;;;;4993354;28;20034;-76
2023/11/15 11:55:24;;;;;;;3.15;1.30;;;12.90;55.00;;;;;;4993804;28;20479;-75
2023/11/15 11:57:52;;;;;;;7.97;1.33;;;12.50;56.40;;;;;;4977813;28;20057;-76
2023/11/15 12:00:20;;;;;;;3.55;1.00;;;12.40;56.80;;;;;;4993581;28;20066;-76
2023/11/15 12:02:51;;;;;;;5.15;1.17;;;12.40;57.90;;;;;;4993512;28;20467;-76
2023/11/15 12:05:22;;;;;;;5.50;1.42;;;12.60;56.50;;;;;;4993775;28;20451;-75
2023/11/15 12:07:51;;;;;;;3.25;1.00;;;13.00;55.30;;;;;;4977280;28;20055;-75
2023/11/15 12:10:18;;;;;;;3.05;0.90;;;13.60;52.20;;;;;;4977567;28;20048;-79
2023/11/15 12:13:49;;;;;;;3.10;1.02;;;14.80;49.80;;;;;;4993959;28;20357;-76
2023/11/15 12:16:35;;;;;;;2.22;1.10;;;16.00;46.10;;;;;;4994769;28;20027;-78
2023/11/15 12:19:05;;;;;;;5.18;1.27;;;15.80;45.90;;;;;;4994993;28;20109;-78
2023/11/15 12:21:54;;;;;;;4.95;1.52;;;16.00;44.90;;;;;;4993581;28;20062;-79
2023/11/15 12:24:24;;;;;;;3.63;1.00;;;15.80;46.90;;;;;;4994090;28;20146;-78
2023/11/15 12:26:51;;;;;;;5.20;1.35;;;15.60;46.00;;;;;;4978029;28;20030;-76
2023/11/15 12:29:26;;;;;;;6.78;1.15;;;15.00;47.10;;;;;;4993598;28;20042;-79
2023/11/15 12:31:55;;;;;;;3.42;0.80;;;15.60;47.20;;;;;;4994770;28;20038;-77
2023/11/15 12:34:24;;;;;;;4.22;1.02;;;17.10;43.20;;;;;;4996670;28;20076;-80
2023/11/15 12:36:50;;;;;;;3.15;1.25;;;18.20;39.20;;;;;;4998661;28;20030;-76
2023/11/15 12:39:17;;;;;;;3.05;0.88;;;18.90;37.30;;;;;;4994101;28;20022;-76
2023/11/15 12:41:52;;;;;;;6.30;1.42;;;18.40;37.70;;;;;;4994147;28;20415;-76
2023/11/15 12:44:20;;;;;;;5.53;1.60;;;18.30;39.40;;;;;;4993132;28;20129;-76
2023/11/15 12:46:50;;;;;;;5.00;1.10;;;19.20;37.60;;;;;;4977103;28;20528;-77
2023/11/15 12:49:22;;;;;;;4.95;1.17;;;19.80;35.10;;;;;;4993118;28;20481;-77
2023/11/15 12:51:48;;;;;;;2.08;0.88;;;20.10;34.70;;;;;;4992850;28;20376;-76
2023/11/15 12:54:15;;;;;;;1.60;0.75;;;20.70;32.80;;;;;;4993283;28;20022;-76
2023/11/15 12:56:44;;;;;;;2.72;0.85;;;20.40;33.40;;;;;;4993194;28;20034;-76